PWSweather.com
Personal Weather Stations
Station Observations
001D0A0109D1
ArhipoOsipovkaRU 353485

ArhipoOsipovkaRU 353485

Lat: 44.36389, Lon: 38.52502

Elevation: 26.25

Station Type: Davis Vantage Vue2Pro

Latest ConditionsUpdated 2:46:50 AM GMT+03:03 Tuesday, Oct 22, 2019
Currently Today's Max Today's Min Today's Average
Temperature 57.7°F14.3°C 61.2°F16.2°C 57.7°F14.3°C 59.4°F15.2°C
Dew Point 49.8°F9.9°C 51.3°F10.7°C 49.6°F9.8°C 50.5°F10.3°C
Winds 2.9 mph N4.7 kmh N 7.6 mph -12.2 kmh - - 5.3 mph 8.5 kmh
Wind Gusts 8.1 mph13.0 kmh 17.0 mph27.4 kmh - -
Humidity 75% 75% 70% 72%
Pressure 30.18 in1022.0 mb 30.18 in1022.0 mb 30.16 in1021.3 mb -
Hour Temp Dew Point Humidity Winds Wind Gusts Pressure Precip Precip Rate Daily Precip Total
02:46 AM 57.7°F14.3°C 49.8°F9.9°C 75% 2.9 mph N4.7 kmh N 8.1 mph13.0 kmh 30.18 in1022.0 mb 0.00 in0.0 mm 0.00 in0.0 mm 0.00 in0.0 mm
02:44 AM 57.7°F14.3°C 49.8°F9.9°C 75% 2.9 mph NNW4.7 kmh NNW 4.9 mph7.9 kmh 30.18 in1022.0 mb 0.00 in0.0 mm 0.00 in0.0 mm 0.00 in0.0 mm
02:43 AM 57.7°F14.3°C 49.8°F9.9°C 75% 2.7 mph NNW4.3 kmh NNW 8.1 mph13.0 kmh 30.18 in1022.0 mb 0.00 in0.0 mm 0.00 in0.0 mm 0.00 in0.0 mm
02:42 AM 57.7°F14.3°C 49.8°F9.9°C 75% 2.7 mph NW4.3 kmh NW 8.1 mph13.0 kmh 30.18 in1022.0 mb 0.00 in0.0 mm 0.00 in0.0 mm 0.00 in0.0 mm
02:41 AM 57.7°F14.3°C 49.8°F9.9°C 75% 2.5 mph NW4.0 kmh NW 4.9 mph7.9 kmh 30.18 in1022.0 mb 0.00 in0.0 mm 0.00 in0.0 mm 0.00 in0.0 mm
02:40 AM 57.9°F14.4°C 50.0°F10.0°C 75% 2.7 mph NW4.3 kmh NW 2.9 mph4.7 kmh 30.18 in1022.0 mb 0.00 in0.0 mm 0.00 in0.0 mm 0.00 in0.0 mm
02:39 AM 57.9°F14.4°C 50.0°F10.0°C 75% 2.7 mph N4.3 kmh N 2.9 mph4.7 kmh 30.18 in1022.0 mb 0.00 in0.0 mm 0.00 in0.0 mm 0.00 in0.0 mm
02:38 AM 57.9°F14.4°C 50.0°F10.0°C 75% 2.7 mph N4.3 kmh N 6.0 mph9.7 kmh 30.18 in1022.0 mb 0.00 in0.0 mm 0.00 in0.0 mm 0.00 in0.0 mm
02:37 AM 57.9°F14.4°C 50.0°F10.0°C 75% 2.5 mph N4.0 kmh N 6.0 mph9.7 kmh 30.17 in1021.7 mb 0.00 in0.0 mm 0.00 in0.0 mm 0.00 in0.0 mm
02:36 AM 57.9°F14.4°C 50.0°F10.0°C 75% 2.5 mph N4.0 kmh N 4.9 mph7.9 kmh 30.18 in1022.0 mb 0.00 in0.0 mm 0.00 in0.0 mm 0.00 in0.0 mm
02:35 AM 57.9°F14.4°C 50.0°F10.0°C 75% 2.2 mph N3.5 kmh N 8.1 mph13.0 kmh 30.18 in1022.0 mb 0.00 in0.0 mm 0.00 in0.0 mm 0.00 in0.0 mm
02:34 AM 57.9°F14.4°C 50.0°F10.0°C 75% 2.2 mph N3.5 kmh N 6.9 mph11.1 kmh 30.17 in1021.7 mb 0.00 in0.0 mm 0.00 in0.0 mm 0.00 in0.0 mm
02:33 AM 57.9°F14.4°C 50.0°F10.0°C 75% 2.2 mph NW3.5 kmh NW 6.9 mph11.1 kmh 30.18 in1022.0 mb 0.00 in0.0 mm 0.00 in0.0 mm 0.00 in0.0 mm
02:32 AM 57.9°F14.4°C 50.0°F10.0°C 75% 2.2 mph NNW3.5 kmh NNW 4.9 mph7.9 kmh 30.18 in1022.0 mb 0.00 in0.0 mm 0.00 in0.0 mm 0.00 in0.0 mm
02:31 AM 57.9°F14.4°C 50.0°F10.0°C 75% 2.2 mph NNW3.5 kmh NNW 6.0 mph9.7 kmh 30.18 in1022.0 mb 0.00 in0.0 mm 0.00 in0.0 mm 0.00 in0.0 mm
02:30 AM 57.9°F14.4°C 50.0°F10.0°C 75% 2.0 mph NNW3.2 kmh NNW 4.9 mph7.9 kmh 30.18 in1022.0 mb 0.00 in0.0 mm 0.00 in0.0 mm 0.00 in0.0 mm
02:29 AM 57.9°F14.4°C 49.6°F9.8°C 74% 2.2 mph N3.5 kmh N 4.0 mph6.4 kmh 30.18 in1022.0 mb 0.00 in0.0 mm 0.00 in0.0 mm 0.00 in0.0 mm
02:28 AM 57.9°F14.4°C 49.6°F9.8°C 74% 2.0 mph NNW3.2 kmh NNW 6.0 mph9.7 kmh 30.18 in1022.0 mb 0.00 in0.0 mm 0.00 in0.0 mm 0.00 in0.0 mm
02:27 AM 57.9°F14.4°C 49.6°F9.8°C 74% 2.2 mph NW3.5 kmh NW 2.9 mph4.7 kmh 30.18 in1022.0 mb 0.00 in0.0 mm 0.00 in0.0 mm 0.00 in0.0 mm
02:26 AM 58.1°F14.5°C 49.8°F9.9°C 74% 2.2 mph NW3.5 kmh NW 2.9 mph4.7 kmh 30.18 in1022.0 mb 0.00 in0.0 mm 0.00 in0.0 mm 0.00 in0.0 mm
02:25 AM 58.1°F14.5°C 49.8°F9.9°C 74% 2.5 mph NNW4.0 kmh NNW 4.0 mph6.4 kmh 30.18 in1022.0 mb 0.00 in0.0 mm 0.00 in0.0 mm 0.00 in0.0 mm
02:24 AM 58.3°F14.6°C 50.0°F10.0°C 74% 2.5 mph NW4.0 kmh NW 4.9 mph7.9 kmh 30.18 in1022.0 mb 0.00 in0.0 mm 0.00 in0.0 mm 0.00 in0.0 mm
02:23 AM 58.3°F14.6°C 50.0°F10.0°C 74% 2.7 mph N4.3 kmh N 6.0 mph9.7 kmh 30.18 in1022.0 mb 0.00 in0.0 mm 0.00 in0.0 mm 0.00 in0.0 mm
02:22 AM 58.3°F14.6°C 50.0°F10.0°C 74% 2.7 mph N4.3 kmh N 4.9 mph7.9 kmh 30.18 in1022.0 mb 0.00 in0.0 mm 0.00 in0.0 mm 0.00 in0.0 mm
02:21 AM 58.3°F14.6°C 50.0°F10.0°C 74% 2.7 mph N4.3 kmh N 4.9 mph7.9 kmh 30.18 in1022.0 mb 0.00 in0.0 mm 0.00 in0.0 mm 0.00 in0.0 mm
02:20 AM 58.3°F14.6°C 50.0°F10.0°C 74% 3.1 mph NNW5.0 kmh NNW 4.9 mph7.9 kmh 30.18 in1022.0 mb 0.00 in0.0 mm 0.00 in0.0 mm 0.00 in0.0 mm
02:19 AM 58.3°F14.6°C 50.0°F10.0°C 74% 3.1 mph N5.0 kmh N 4.9 mph7.9 kmh 30.18 in1022.0 mb 0.00 in0.0 mm 0.00 in0.0 mm 0.00 in0.0 mm
02:18 AM 58.3°F14.6°C 50.0°F10.0°C 74% 3.4 mph NNW5.5 kmh NNW 2.9 mph4.7 kmh 30.18 in1022.0 mb 0.00 in0.0 mm 0.00 in0.0 mm 0.00 in0.0 mm
02:17 AM 58.3°F14.6°C 50.0°F10.0°C 74% 3.6 mph NW5.8 kmh NW 4.0 mph6.4 kmh 30.18 in1022.0 mb 0.00 in0.0 mm 0.00 in0.0 mm 0.00 in0.0 mm
02:16 AM 58.3°F14.6°C 50.0°F10.0°C 74% 3.6 mph N5.8 kmh N 8.1 mph13.0 kmh 30.18 in1022.0 mb 0.00 in0.0 mm 0.00 in0.0 mm 0.00 in0.0 mm
02:15 AM 58.3°F14.6°C 50.0°F10.0°C 74% 3.4 mph NNW5.5 kmh NNW 8.1 mph13.0 kmh 30.18 in1022.0 mb 0.00 in0.0 mm 0.00 in0.0 mm 0.00 in0.0 mm
02:14 AM 58.3°F14.6°C 50.0°F10.0°C 74% 3.4 mph NNW5.5 kmh NNW 6.0 mph9.7 kmh 30.18 in1022.0 mb 0.00 in0.0 mm 0.00 in0.0 mm 0.00 in0.0 mm
02:13 AM 58.5°F14.7°C 50.2°F10.1°C 74% 3.4 mph NW5.5 kmh NW 4.9 mph7.9 kmh 30.18 in1022.0 mb 0.00 in0.0 mm 0.00 in0.0 mm 0.00 in0.0 mm
02:12 AM 58.5°F14.7°C 50.2°F10.1°C 74% 3.6 mph N5.8 kmh N 6.0 mph9.7 kmh 30.18 in1022.0 mb 0.00 in0.0 mm 0.00 in0.0 mm 0.00 in0.0 mm
02:11 AM 58.5°F14.7°C 50.2°F10.1°C 74% 3.6 mph NNW5.8 kmh NNW 10.1 mph16.3 kmh 30.18 in1022.0 mb 0.00 in0.0 mm 0.00 in0.0 mm 0.00 in0.0 mm
02:10 AM 58.5°F14.7°C 50.2°F10.1°C 74% 3.4 mph N5.5 kmh N 10.1 mph16.3 kmh 30.18 in1022.0 mb 0.00 in0.0 mm 0.00 in0.0 mm 0.00 in0.0 mm
02:09 AM 58.5°F14.7°C 50.2°F10.1°C 74% 3.6 mph NNW5.8 kmh NNW 8.9 mph14.3 kmh 30.18 in1022.0 mb 0.00 in0.0 mm 0.00 in0.0 mm 0.00 in0.0 mm
02:08 AM 58.5°F14.7°C 50.2°F10.1°C 74% 3.8 mph NW6.1 kmh NW 6.0 mph9.7 kmh 30.18 in1022.0 mb 0.00 in0.0 mm 0.00 in0.0 mm 0.00 in0.0 mm
02:07 AM 58.5°F14.7°C 50.2°F10.1°C 74% 4.0 mph N6.4 kmh N 6.0 mph9.7 kmh 30.18 in1022.0 mb 0.00 in0.0 mm 0.00 in0.0 mm 0.00 in0.0 mm
02:06 AM 58.5°F14.7°C 50.2°F10.1°C 74% 4.3 mph NNW6.9 kmh NNW 6.0 mph9.7 kmh 30.18 in1022.0 mb 0.00 in0.0 mm 0.00 in0.0 mm 0.00 in0.0 mm
02:05 AM 58.6°F14.8°C 50.4°F10.2°C 74% 4.3 mph NNW6.9 kmh NNW 6.0 mph9.7 kmh 30.18 in1022.0 mb 0.00 in0.0 mm 0.00 in0.0 mm 0.00 in0.0 mm
02:04 AM 58.6°F14.8°C 50.4°F10.2°C 74% 4.5 mph N7.2 kmh N 4.9 mph7.9 kmh 30.18 in1022.0 mb 0.00 in0.0 mm 0.00 in0.0 mm 0.00 in0.0 mm
02:03 AM 58.6°F14.8°C 50.0°F10.0°C 73% 4.7 mph N7.6 kmh N 6.0 mph9.7 kmh 30.18 in1022.0 mb 0.00 in0.0 mm 0.00 in0.0 mm 0.00 in0.0 mm
02:02 AM 58.6°F14.8°C 50.0°F10.0°C 73% 4.7 mph N7.6 kmh N 8.9 mph14.3 kmh 30.18 in1022.0 mb 0.00 in0.0 mm 0.00 in0.0 mm 0.00 in0.0 mm
02:01 AM 58.6°F14.8°C 50.0°F10.0°C 73% 4.9 mph NNW7.9 kmh NNW 11.0 mph17.7 kmh 30.18 in1022.0 mb 0.00 in0.0 mm 0.00 in0.0 mm 0.00 in0.0 mm
02:00 AM 58.6°F14.8°C 50.0°F10.0°C 73% 4.9 mph NW7.9 kmh NW 11.0 mph17.7 kmh 30.18 in1022.0 mb 0.00 in0.0 mm 0.00 in0.0 mm 0.00 in0.0 mm
01:59 AM 58.6°F14.8°C 50.0°F10.0°C 73% 5.1 mph NW8.2 kmh NW 8.1 mph13.0 kmh 30.18 in1022.0 mb 0.00 in0.0 mm 0.00 in0.0 mm 0.00 in0.0 mm
01:58 AM 58.8°F14.9°C 50.2°F10.1°C 73% 5.1 mph NNW8.2 kmh NNW 10.1 mph16.3 kmh 30.18 in1022.0 mb 0.00 in0.0 mm 0.00 in0.0 mm 0.00 in0.0 mm
01:57 AM 58.8°F14.9°C 50.2°F10.1°C 73% 5.1 mph NNW8.2 kmh NNW 8.1 mph13.0 kmh 30.18 in1022.0 mb 0.00 in0.0 mm 0.00 in0.0 mm 0.00 in0.0 mm
01:56 AM 58.8°F14.9°C 50.2°F10.1°C 73% 5.4 mph N8.7 kmh N 8.1 mph13.0 kmh 30.18 in1022.0 mb 0.00 in0.0 mm 0.00 in0.0 mm 0.00 in0.0 mm
01:55 AM 58.8°F14.9°C 50.2°F10.1°C 73% 5.4 mph N8.7 kmh N 8.9 mph14.3 kmh 30.18 in1022.0 mb 0.00 in0.0 mm 0.00 in0.0 mm 0.00 in0.0 mm
01:54 AM 58.8°F14.9°C 50.2°F10.1°C 73% 5.4 mph NW8.7 kmh NW 8.9 mph14.3 kmh 30.18 in1022.0 mb 0.00 in0.0 mm 0.00 in0.0 mm 0.00 in0.0 mm
01:53 AM 58.8°F14.9°C 50.2°F10.1°C 73% 5.4 mph NW8.7 kmh NW 8.9 mph14.3 kmh 30.18 in1022.0 mb 0.00 in0.0 mm 0.00 in0.0 mm 0.00 in0.0 mm
01:52 AM 58.8°F14.9°C 50.2°F10.1°C 73% 5.4 mph WNW8.7 kmh WNW 6.9 mph11.1 kmh 30.18 in1022.0 mb 0.00 in0.0 mm 0.00 in0.0 mm 0.00 in0.0 mm
01:51 AM 58.8°F14.9°C 50.2°F10.1°C 73% 5.4 mph NW8.7 kmh NW 8.9 mph14.3 kmh 30.17 in1021.7 mb 0.00 in0.0 mm 0.00 in0.0 mm 0.00 in0.0 mm
01:50 AM 58.8°F14.9°C 50.2°F10.1°C 73% 5.4 mph N8.7 kmh N 10.1 mph16.3 kmh 30.18 in1022.0 mb 0.00 in0.0 mm 0.00 in0.0 mm 0.00 in0.0 mm
01:49 AM 58.8°F14.9°C 50.2°F10.1°C 73% 5.6 mph NW9.0 kmh NW 12.1 mph19.5 kmh 30.18 in1022.0 mb 0.00 in0.0 mm 0.00 in0.0 mm 0.00 in0.0 mm
01:48 AM 58.8°F14.9°C 50.2°F10.1°C 73% 5.1 mph NW8.2 kmh NW 10.1 mph16.3 kmh 30.17 in1021.7 mb 0.00 in0.0 mm 0.00 in0.0 mm 0.00 in0.0 mm
01:47 AM 58.8°F14.9°C 50.2°F10.1°C 73% 4.9 mph W7.9 kmh W 11.0 mph17.7 kmh 30.18 in1022.0 mb 0.00 in0.0 mm 0.00 in0.0 mm 0.00 in0.0 mm
01:46 AM 58.8°F14.9°C 50.2°F10.1°C 73% 4.9 mph NW7.9 kmh NW 12.1 mph19.5 kmh 30.17 in1021.7 mb 0.00 in0.0 mm 0.00 in0.0 mm 0.00 in0.0 mm
01:45 AM 58.8°F14.9°C 50.2°F10.1°C 73% 5.1 mph NW8.2 kmh NW 8.9 mph14.3 kmh 30.17 in1021.7 mb 0.00 in0.0 mm 0.00 in0.0 mm 0.00 in0.0 mm
01:44 AM 59.0°F15.0°C 50.4°F10.2°C 73% 5.6 mph NNW9.0 kmh NNW 8.9 mph14.3 kmh 30.17 in1021.7 mb 0.00 in0.0 mm 0.00 in0.0 mm 0.00 in0.0 mm
01:43 AM 59.0°F15.0°C 50.4°F10.2°C 73% 5.4 mph NNW8.7 kmh NNW 10.1 mph16.3 kmh 30.17 in1021.7 mb 0.00 in0.0 mm 0.00 in0.0 mm 0.00 in0.0 mm
01:42 AM 58.8°F14.9°C 50.2°F10.1°C 73% 5.6 mph NW9.0 kmh NW 10.1 mph16.3 kmh 30.17 in1021.7 mb 0.00 in0.0 mm 0.00 in0.0 mm 0.00 in0.0 mm
01:41 AM 59.0°F15.0°C 50.4°F10.2°C 73% 5.8 mph N9.3 kmh N 10.1 mph16.3 kmh 30.17 in1021.7 mb 0.00 in0.0 mm 0.00 in0.0 mm 0.00 in0.0 mm
01:40 AM 59.0°F15.0°C 50.4°F10.2°C 73% 5.8 mph NW9.3 kmh NW 13.0 mph20.9 kmh 30.17 in1021.7 mb 0.00 in0.0 mm 0.00 in0.0 mm 0.00 in0.0 mm
01:39 AM 59.0°F15.0°C 50.4°F10.2°C 73% 5.8 mph NNW9.3 kmh NNW 13.0 mph20.9 kmh 30.17 in1021.7 mb 0.00 in0.0 mm 0.00 in0.0 mm 0.00 in0.0 mm
01:38 AM 59.2°F15.1°C 50.5°F10.3°C 73% 6.3 mph NNW10.1 kmh NNW 8.1 mph13.0 kmh 30.17 in1021.7 mb 0.00 in0.0 mm 0.00 in0.0 mm 0.00 in0.0 mm
01:37 AM 59.2°F15.1°C 50.5°F10.3°C 73% 6.5 mph NNW10.5 kmh NNW 8.1 mph13.0 kmh 30.17 in1021.7 mb 0.00 in0.0 mm 0.00 in0.0 mm 0.00 in0.0 mm
01:36 AM 59.2°F15.1°C 50.5°F10.3°C 73% 6.7 mph NW10.8 kmh NW 10.1 mph16.3 kmh 30.17 in1021.7 mb 0.00 in0.0 mm 0.00 in0.0 mm 0.00 in0.0 mm
01:35 AM 59.2°F15.1°C 50.5°F10.3°C 73% 6.7 mph NNW10.8 kmh NNW 11.0 mph17.7 kmh 30.17 in1021.7 mb 0.00 in0.0 mm 0.00 in0.0 mm 0.00 in0.0 mm
01:34 AM 59.2°F15.1°C 50.5°F10.3°C 73% 6.7 mph NNW10.8 kmh NNW 11.0 mph17.7 kmh 30.17 in1021.7 mb 0.00 in0.0 mm 0.00 in0.0 mm 0.00 in0.0 mm
01:33 AM 59.2°F15.1°C 50.5°F10.3°C 73% 6.7 mph NW10.8 kmh NW 11.0 mph17.7 kmh 30.17 in1021.7 mb 0.00 in0.0 mm 0.00 in0.0 mm 0.00 in0.0 mm
01:32 AM 59.4°F15.2°C 50.7°F10.4°C 73% 6.5 mph NNW10.5 kmh NNW 11.0 mph17.7 kmh 30.17 in1021.7 mb 0.00 in0.0 mm 0.00 in0.0 mm 0.00 in0.0 mm
01:31 AM 59.4°F15.2°C 50.7°F10.4°C 73% 6.7 mph N10.8 kmh N 11.0 mph17.7 kmh 30.17 in1021.7 mb 0.00 in0.0 mm 0.00 in0.0 mm 0.00 in0.0 mm
01:30 AM 59.4°F15.2°C 50.4°F10.2°C 72% 6.7 mph N10.8 kmh N 10.1 mph16.3 kmh 30.17 in1021.7 mb 0.00 in0.0 mm 0.00 in0.0 mm 0.00 in0.0 mm
01:29 AM 59.5°F15.3°C 50.5°F10.3°C 72% 6.7 mph WNW10.8 kmh WNW 11.0 mph17.7 kmh 30.17 in1021.7 mb 0.00 in0.0 mm 0.00 in0.0 mm 0.00 in0.0 mm
01:28 AM 59.5°F15.3°C 50.5°F10.3°C 72% 6.7 mph NW10.8 kmh NW 11.0 mph17.7 kmh 30.17 in1021.7 mb 0.00 in0.0 mm 0.00 in0.0 mm 0.00 in0.0 mm
01:27 AM 59.5°F15.3°C 50.5°F10.3°C 72% 6.5 mph NNW10.5 kmh NNW 10.1 mph16.3 kmh 30.17 in1021.7 mb 0.00 in0.0 mm 0.00 in0.0 mm 0.00 in0.0 mm
01:26 AM 59.5°F15.3°C 50.5°F10.3°C 72% 6.0 mph NNW9.7 kmh NNW 12.1 mph19.5 kmh 30.17 in1021.7 mb 0.00 in0.0 mm 0.00 in0.0 mm 0.00 in0.0 mm
01:25 AM 59.5°F15.3°C 50.5°F10.3°C 72% 5.8 mph NNW9.3 kmh NNW 12.1 mph19.5 kmh 30.17 in1021.7 mb 0.00 in0.0 mm 0.00 in0.0 mm 0.00 in0.0 mm
01:24 AM 59.5°F15.3°C 50.5°F10.3°C 72% 5.6 mph NNW9.0 kmh NNW 12.1 mph19.5 kmh 30.17 in1021.7 mb 0.00 in0.0 mm 0.00 in0.0 mm 0.00 in0.0 mm
01:23 AM 59.5°F15.3°C 50.5°F10.3°C 72% 5.8 mph NNW9.3 kmh NNW 10.1 mph16.3 kmh 30.17 in1021.7 mb 0.00 in0.0 mm 0.00 in0.0 mm 0.00 in0.0 mm
01:22 AM 59.5°F15.3°C 50.5°F10.3°C 72% 5.8 mph NW9.3 kmh NW 12.1 mph19.5 kmh 30.17 in1021.7 mb 0.00 in0.0 mm 0.00 in0.0 mm 0.00 in0.0 mm
01:21 AM 59.5°F15.3°C 50.5°F10.3°C 72% 5.6 mph N9.0 kmh N 12.1 mph19.5 kmh 30.17 in1021.7 mb 0.00 in0.0 mm 0.00 in0.0 mm 0.00 in0.0 mm
01:20 AM 59.5°F15.3°C 50.5°F10.3°C 72% 5.6 mph N9.0 kmh N 11.0 mph17.7 kmh 30.17 in1021.7 mb 0.00 in0.0 mm 0.00 in0.0 mm 0.00 in0.0 mm
01:19 AM 59.5°F15.3°C 50.5°F10.3°C 72% 5.6 mph NNW9.0 kmh NNW 12.1 mph19.5 kmh 30.17 in1021.7 mb 0.00 in0.0 mm 0.00 in0.0 mm 0.00 in0.0 mm
01:18 AM 59.7°F15.4°C 50.7°F10.4°C 72% 5.4 mph NW8.7 kmh NW 8.1 mph13.0 kmh 30.17 in1021.7 mb 0.00 in0.0 mm 0.00 in0.0 mm 0.00 in0.0 mm
01:17 AM 59.7°F15.4°C 50.7°F10.4°C 72% 5.6 mph NW9.0 kmh NW 6.9 mph11.1 kmh 30.17 in1021.7 mb 0.00 in0.0 mm 0.00 in0.0 mm 0.00 in0.0 mm
01:16 AM 59.7°F15.4°C 50.7°F10.4°C 72% 5.8 mph WNW9.3 kmh WNW 8.9 mph14.3 kmh 30.17 in1021.7 mb 0.00 in0.0 mm 0.00 in0.0 mm 0.00 in0.0 mm
01:15 AM 59.7°F15.4°C 50.7°F10.4°C 72% 5.6 mph N9.0 kmh N 8.9 mph14.3 kmh 30.17 in1021.7 mb 0.00 in0.0 mm 0.00 in0.0 mm 0.00 in0.0 mm
01:14 AM 59.7°F15.4°C 50.7°F10.4°C 72% 5.4 mph NW8.7 kmh NW 12.1 mph19.5 kmh 30.17 in1021.7 mb 0.00 in0.0 mm 0.00 in0.0 mm 0.00 in0.0 mm
01:13 AM 59.7°F15.4°C 50.7°F10.4°C 72% 5.4 mph NW8.7 kmh NW 12.1 mph19.5 kmh 30.17 in1021.7 mb 0.00 in0.0 mm 0.00 in0.0 mm 0.00 in0.0 mm
01:12 AM 59.7°F15.4°C 50.7°F10.4°C 72% 5.4 mph NW8.7 kmh NW 10.1 mph16.3 kmh 30.17 in1021.7 mb 0.00 in0.0 mm 0.00 in0.0 mm 0.00 in0.0 mm
01:11 AM 59.7°F15.4°C 50.7°F10.4°C 72% 5.4 mph NW8.7 kmh NW 10.1 mph16.3 kmh 30.17 in1021.7 mb 0.00 in0.0 mm 0.00 in0.0 mm 0.00 in0.0 mm
01:10 AM 59.7°F15.4°C 50.7°F10.4°C 72% 5.1 mph NW8.2 kmh NW 8.9 mph14.3 kmh 30.17 in1021.7 mb 0.00 in0.0 mm 0.00 in0.0 mm 0.00 in0.0 mm
01:09 AM 59.7°F15.4°C 50.7°F10.4°C 72% 5.1 mph NW8.2 kmh NW 11.0 mph17.7 kmh 30.17 in1021.7 mb 0.00 in0.0 mm 0.00 in0.0 mm 0.00 in0.0 mm
01:08 AM 59.7°F15.4°C 50.7°F10.4°C 72% 5.1 mph NW8.2 kmh NW 10.1 mph16.3 kmh 30.17 in1021.7 mb 0.00 in0.0 mm 0.00 in0.0 mm 0.00 in0.0 mm
01:07 AM 59.7°F15.4°C 50.7°F10.4°C 72% 4.9 mph NNW7.9 kmh NNW 10.1 mph16.3 kmh 30.17 in1021.7 mb 0.00 in0.0 mm 0.00 in0.0 mm 0.00 in0.0 mm
01:06 AM 59.7°F15.4°C 50.7°F10.4°C 72% 5.4 mph NW8.7 kmh NW 8.1 mph13.0 kmh 30.17 in1021.7 mb 0.00 in0.0 mm 0.00 in0.0 mm 0.00 in0.0 mm
01:05 AM 59.7°F15.4°C 50.7°F10.4°C 72% 5.6 mph WNW9.0 kmh WNW 6.0 mph9.7 kmh 30.16 in1021.3 mb 0.00 in0.0 mm 0.00 in0.0 mm 0.00 in0.0 mm
01:04 AM 59.7°F15.4°C 50.7°F10.4°C 72% 6.0 mph W9.7 kmh W 12.1 mph19.5 kmh 30.17 in1021.7 mb 0.00 in0.0 mm 0.00 in0.0 mm 0.00 in0.0 mm
01:03 AM 59.7°F15.4°C 50.7°F10.4°C 72% 6.0 mph NW9.7 kmh NW 12.1 mph19.5 kmh 30.17 in1021.7 mb 0.00 in0.0 mm 0.00 in0.0 mm 0.00 in0.0 mm
01:02 AM 59.9°F15.5°C 50.9°F10.5°C 72% 5.8 mph N9.3 kmh N 12.1 mph19.5 kmh 30.17 in1021.7 mb 0.00 in0.0 mm 0.00 in0.0 mm 0.00 in0.0 mm
01:01 AM 59.9°F15.5°C 50.9°F10.5°C 72% 6.3 mph N10.1 kmh N 12.1 mph19.5 kmh 30.17 in1021.7 mb 0.00 in0.0 mm 0.00 in0.0 mm 0.00 in0.0 mm
01:00 AM 60.1°F15.6°C 50.7°F10.4°C 71% 6.3 mph NW10.1 kmh NW 10.1 mph16.3 kmh 30.17 in1021.7 mb 0.00 in0.0 mm 0.00 in0.0 mm 0.00 in0.0 mm
12:59 AM 60.1°F15.6°C 50.7°F10.4°C 71% 6.5 mph NNW10.5 kmh NNW 8.9 mph14.3 kmh 30.17 in1021.7 mb 0.00 in0.0 mm 0.00 in0.0 mm 0.00 in0.0 mm
12:58 AM 60.1°F15.6°C 50.7°F10.4°C 71% 6.9 mph WNW11.1 kmh WNW 10.1 mph16.3 kmh 30.16 in1021.3 mb 0.00 in0.0 mm 0.00 in0.0 mm 0.00 in0.0 mm
12:57 AM 60.1°F15.6°C 50.7°F10.4°C 71% 7.2 mph NW11.6 kmh NW 13.0 mph20.9 kmh 30.16 in1021.3 mb 0.00 in0.0 mm 0.00 in0.0 mm 0.00 in0.0 mm
12:56 AM 60.1°F15.6°C 50.7°F10.4°C 71% 7.2 mph N11.6 kmh N 13.0 mph20.9 kmh 30.17 in1021.7 mb 0.00 in0.0 mm 0.00 in0.0 mm 0.00 in0.0 mm
12:55 AM 60.1°F15.6°C 50.7°F10.4°C 71% 7.2 mph NNW11.6 kmh NNW 12.1 mph19.5 kmh 30.17 in1021.7 mb 0.00 in0.0 mm 0.00 in0.0 mm 0.00 in0.0 mm
12:54 AM 60.1°F15.6°C 50.7°F10.4°C 71% 7.4 mph NW11.9 kmh NW 10.1 mph16.3 kmh 30.17 in1021.7 mb 0.00 in0.0 mm 0.00 in0.0 mm 0.00 in0.0 mm
12:53 AM 60.3°F15.7°C 50.9°F10.5°C 71% 7.4 mph NNW11.9 kmh NNW 12.1 mph19.5 kmh 30.17 in1021.7 mb 0.00 in0.0 mm 0.00 in0.0 mm 0.00 in0.0 mm
12:52 AM 60.3°F15.7°C 50.9°F10.5°C 71% 7.4 mph NW11.9 kmh NW 13.0 mph20.9 kmh 30.17 in1021.7 mb 0.00 in0.0 mm 0.00 in0.0 mm 0.00 in0.0 mm
12:51 AM 60.3°F15.7°C 50.9°F10.5°C 71% 7.2 mph N11.6 kmh N 10.1 mph16.3 kmh 30.17 in1021.7 mb 0.00 in0.0 mm 0.00 in0.0 mm 0.00 in0.0 mm
12:50 AM 60.3°F15.7°C 50.9°F10.5°C 71% 6.9 mph 11.1 kmh 13.0 mph20.9 kmh 30.17 in1021.7 mb 0.00 in0.0 mm 0.00 in0.0 mm 0.00 in0.0 mm
12:49 AM 60.3°F15.7°C 50.9°F10.5°C 71% 6.7 mph NW10.8 kmh NW 13.0 mph20.9 kmh 30.17 in1021.7 mb 0.00 in0.0 mm 0.00 in0.0 mm 0.00 in0.0 mm
12:48 AM 60.3°F15.7°C 50.9°F10.5°C 71% 6.5 mph WNW10.5 kmh WNW 13.0 mph20.9 kmh 30.17 in1021.7 mb 0.00 in0.0 mm 0.00 in0.0 mm 0.00 in0.0 mm
12:47 AM 60.3°F15.7°C 50.9°F10.5°C 71% 6.5 mph NW10.5 kmh NW 12.1 mph19.5 kmh 30.17 in1021.7 mb 0.00 in0.0 mm 0.00 in0.0 mm 0.00 in0.0 mm
12:46 AM 60.3°F15.7°C 50.9°F10.5°C 71% 6.5 mph NW10.5 kmh NW 11.0 mph17.7 kmh 30.17 in1021.7 mb 0.00 in0.0 mm 0.00 in0.0 mm 0.00 in0.0 mm
12:45 AM 60.3°F15.7°C 50.9°F10.5°C 71% 6.5 mph NNW10.5 kmh NNW 11.0 mph17.7 kmh 30.17 in1021.7 mb 0.00 in0.0 mm 0.00 in0.0 mm 0.00 in0.0 mm
12:44 AM 60.3°F15.7°C 50.9°F10.5°C 71% 6.3 mph WNW10.1 kmh WNW 12.1 mph19.5 kmh 30.17 in1021.7 mb 0.00 in0.0 mm 0.00 in0.0 mm 0.00 in0.0 mm
12:43 AM 60.3°F15.7°C 50.9°F10.5°C 71% 6.3 mph W10.1 kmh W 10.1 mph16.3 kmh 30.17 in1021.7 mb 0.00 in0.0 mm 0.00 in0.0 mm 0.00 in0.0 mm
12:42 AM 60.3°F15.7°C 50.9°F10.5°C 71% 6.5 mph WNW10.5 kmh WNW 10.1 mph16.3 kmh 30.17 in1021.7 mb 0.00 in0.0 mm 0.00 in0.0 mm 0.00 in0.0 mm
12:41 AM 60.3°F15.7°C 50.9°F10.5°C 71% 6.7 mph NNW10.8 kmh NNW 8.9 mph14.3 kmh 30.17 in1021.7 mb 0.00 in0.0 mm 0.00 in0.0 mm 0.00 in0.0 mm
12:40 AM 60.3°F15.7°C 50.9°F10.5°C 71% 6.9 mph NW11.1 kmh NW 10.1 mph16.3 kmh 30.17 in1021.7 mb 0.00 in0.0 mm 0.00 in0.0 mm 0.00 in0.0 mm
12:39 AM 60.3°F15.7°C 50.9°F10.5°C 71% 6.9 mph NW11.1 kmh NW 10.1 mph16.3 kmh 30.17 in1021.7 mb 0.00 in0.0 mm 0.00 in0.0 mm 0.00 in0.0 mm
12:38 AM 60.3°F15.7°C 50.9°F10.5°C 71% 7.2 mph WNW11.6 kmh WNW 13.0 mph20.9 kmh 30.17 in1021.7 mb 0.00 in0.0 mm 0.00 in0.0 mm 0.00 in0.0 mm
12:37 AM 60.3°F15.7°C 50.9°F10.5°C 71% 6.9 mph NW11.1 kmh NW 13.0 mph20.9 kmh 30.17 in1021.7 mb 0.00 in0.0 mm 0.00 in0.0 mm 0.00 in0.0 mm
12:36 AM 60.4°F15.8°C 51.1°F10.6°C 71% 6.9 mph WNW11.1 kmh WNW 17.0 mph27.4 kmh 30.17 in1021.7 mb 0.00 in0.0 mm 0.00 in0.0 mm 0.00 in0.0 mm
12:35 AM 60.4°F15.8°C 51.1°F10.6°C 71% 6.9 mph NW11.1 kmh NW 10.1 mph16.3 kmh 30.17 in1021.7 mb 0.00 in0.0 mm 0.00 in0.0 mm 0.00 in0.0 mm
12:34 AM 60.4°F15.8°C 51.1°F10.6°C 71% 7.2 mph NW11.6 kmh NW 10.1 mph16.3 kmh 30.17 in1021.7 mb 0.00 in0.0 mm 0.00 in0.0 mm 0.00 in0.0 mm
12:33 AM 60.4°F15.8°C 51.1°F10.6°C 71% 6.9 mph NW11.1 kmh NW 12.1 mph19.5 kmh 30.17 in1021.7 mb 0.00 in0.0 mm 0.00 in0.0 mm 0.00 in0.0 mm
12:32 AM 60.4°F15.8°C 51.1°F10.6°C 71% 6.7 mph NW10.8 kmh NW 14.1 mph22.7 kmh 30.17 in1021.7 mb 0.00 in0.0 mm 0.00 in0.0 mm 0.00 in0.0 mm
12:31 AM 60.4°F15.8°C 51.1°F10.6°C 71% 6.3 mph NW10.1 kmh NW 11.0 mph17.7 kmh 30.17 in1021.7 mb 0.00 in0.0 mm 0.00 in0.0 mm 0.00 in0.0 mm
12:30 AM 60.4°F15.8°C 51.1°F10.6°C 71% 6.0 mph NW9.7 kmh NW 11.0 mph17.7 kmh 30.16 in1021.3 mb 0.00 in0.0 mm 0.00 in0.0 mm 0.00 in0.0 mm
12:29 AM 60.4°F15.8°C 51.1°F10.6°C 71% 5.8 mph NW9.3 kmh NW 10.1 mph16.3 kmh 30.17 in1021.7 mb 0.00 in0.0 mm 0.00 in0.0 mm 0.00 in0.0 mm
12:28 AM 60.4°F15.8°C 51.1°F10.6°C 71% 5.8 mph NW9.3 kmh NW 13.0 mph20.9 kmh 30.17 in1021.7 mb 0.00 in0.0 mm 0.00 in0.0 mm 0.00 in0.0 mm
12:27 AM 60.3°F15.7°C 50.9°F10.5°C 71% 5.8 mph 9.3 kmh 14.1 mph22.7 kmh 30.16 in1021.3 mb 0.00 in0.0 mm 0.00 in0.0 mm 0.00 in0.0 mm
12:25 AM 60.3°F15.7°C 50.9°F10.5°C 71% 5.8 mph NW9.3 kmh NW 12.1 mph19.5 kmh 30.16 in1021.3 mb 0.00 in0.0 mm 0.00 in0.0 mm 0.00 in0.0 mm
12:24 AM 60.4°F15.8°C 51.1°F10.6°C 71% 5.6 mph NW9.0 kmh NW 12.1 mph19.5 kmh 30.16 in1021.3 mb 0.00 in0.0 mm 0.00 in0.0 mm 0.00 in0.0 mm
12:23 AM 60.4°F15.8°C 51.1°F10.6°C 71% 5.4 mph NW8.7 kmh NW 8.9 mph14.3 kmh 30.16 in1021.3 mb 0.00 in0.0 mm 0.00 in0.0 mm 0.00 in0.0 mm
12:22 AM 60.4°F15.8°C 51.1°F10.6°C 71% 5.6 mph NW9.0 kmh NW 11.0 mph17.7 kmh 30.16 in1021.3 mb 0.00 in0.0 mm 0.00 in0.0 mm 0.00 in0.0 mm
12:21 AM 60.4°F15.8°C 51.1°F10.6°C 71% 5.6 mph NNW9.0 kmh NNW 11.0 mph17.7 kmh 30.16 in1021.3 mb 0.00 in0.0 mm 0.00 in0.0 mm 0.00 in0.0 mm
12:20 AM 60.4°F15.8°C 51.1°F10.6°C 71% 5.8 mph WSW9.3 kmh WSW 8.9 mph14.3 kmh 30.16 in1021.3 mb 0.00 in0.0 mm 0.00 in0.0 mm 0.00 in0.0 mm
12:19 AM 60.4°F15.8°C 51.1°F10.6°C 71% 6.0 mph WNW9.7 kmh WNW 11.0 mph17.7 kmh 30.17 in1021.7 mb 0.00 in0.0 mm 0.00 in0.0 mm 0.00 in0.0 mm
12:18 AM 60.4°F15.8°C 51.1°F10.6°C 71% 6.0 mph NW9.7 kmh NW 10.1 mph16.3 kmh 30.16 in1021.3 mb 0.00 in0.0 mm 0.00 in0.0 mm 0.00 in0.0 mm
12:17 AM 60.4°F15.8°C 51.1°F10.6°C 71% 6.0 mph NW9.7 kmh NW 13.0 mph20.9 kmh 30.16 in1021.3 mb 0.00 in0.0 mm 0.00 in0.0 mm 0.00 in0.0 mm
12:16 AM 60.4°F15.8°C 51.1°F10.6°C 71% 6.3 mph NW10.1 kmh NW 10.1 mph16.3 kmh 30.17 in1021.7 mb 0.00 in0.0 mm 0.00 in0.0 mm 0.00 in0.0 mm
12:15 AM 60.4°F15.8°C 51.1°F10.6°C 71% 6.3 mph N10.1 kmh N 8.9 mph14.3 kmh 30.16 in1021.3 mb 0.00 in0.0 mm 0.00 in0.0 mm 0.00 in0.0 mm
12:14 AM 60.6°F15.9°C 51.1°F10.6°C 71% 6.3 mph N10.1 kmh N 8.9 mph14.3 kmh 30.16 in1021.3 mb 0.00 in0.0 mm 0.00 in0.0 mm 0.00 in0.0 mm
12:13 AM 60.6°F15.9°C 51.1°F10.6°C 71% 6.7 mph NNW10.8 kmh NNW 11.0 mph17.7 kmh 30.16 in1021.3 mb 0.00 in0.0 mm 0.00 in0.0 mm 0.00 in0.0 mm
12:12 AM 60.6°F15.9°C 51.1°F10.6°C 71% 6.7 mph NNW10.8 kmh NNW 11.0 mph17.7 kmh 30.16 in1021.3 mb 0.00 in0.0 mm 0.00 in0.0 mm 0.00 in0.0 mm
12:11 AM 60.6°F15.9°C 51.1°F10.6°C 71% 6.7 mph WNW10.8 kmh WNW 10.1 mph16.3 kmh 30.16 in1021.3 mb 0.00 in0.0 mm 0.00 in0.0 mm 0.00 in0.0 mm
12:10 AM 60.6°F15.9°C 50.7°F10.4°C 70% 6.9 mph NW11.1 kmh NW 10.1 mph16.3 kmh 30.16 in1021.3 mb 0.00 in0.0 mm 0.00 in0.0 mm 0.00 in0.0 mm
12:09 AM 60.6°F15.9°C 51.1°F10.6°C 71% 6.9 mph 11.1 kmh 10.1 mph16.3 kmh 30.16 in1021.3 mb 0.00 in0.0 mm 0.00 in0.0 mm 0.00 in0.0 mm
12:08 AM 60.8°F16.0°C 50.9°F10.5°C 70% 7.4 mph NNW11.9 kmh NNW 13.0 mph20.9 kmh 30.16 in1021.3 mb 0.00 in0.0 mm 0.00 in0.0 mm 0.00 in0.0 mm
12:07 AM 60.8°F16.0°C 50.9°F10.5°C 70% 7.4 mph NW11.9 kmh NW 13.0 mph20.9 kmh 30.16 in1021.3 mb 0.00 in0.0 mm 0.00 in0.0 mm 0.00 in0.0 mm
12:06 AM 60.8°F16.0°C 50.9°F10.5°C 70% 7.4 mph NNW11.9 kmh NNW 14.1 mph22.7 kmh 30.16 in1021.3 mb 0.00 in0.0 mm 0.00 in0.0 mm 0.00 in0.0 mm
12:05 AM 61.0°F16.1°C 51.1°F10.6°C 70% 7.4 mph NW11.9 kmh NW 11.0 mph17.7 kmh 30.16 in1021.3 mb 0.00 in0.0 mm 0.00 in0.0 mm 0.00 in0.0 mm
12:04 AM 61.0°F16.1°C 51.1°F10.6°C 70% 7.6 mph WNW12.2 kmh WNW 14.1 mph22.7 kmh 30.16 in1021.3 mb 0.00 in0.0 mm 0.00 in0.0 mm 0.00 in0.0 mm
12:03 AM 61.0°F16.1°C 51.1°F10.6°C 70% 7.4 mph WNW11.9 kmh WNW 14.1 mph22.7 kmh 30.16 in1021.3 mb 0.00 in0.0 mm 0.00 in0.0 mm 0.00 in0.0 mm
12:02 AM 61.0°F16.1°C 51.1°F10.6°C 70% 6.9 mph NW11.1 kmh NW 13.0 mph20.9 kmh 30.16 in1021.3 mb 0.00 in0.0 mm 0.00 in0.0 mm 0.00 in0.0 mm
12:01 AM 61.2°F16.2°C 51.3°F10.7°C 70% 6.7 mph WNW10.8 kmh WNW 13.0 mph20.9 kmh 30.16 in1021.3 mb 0.00 in0.0 mm 0.00 in0.0 mm 0.00 in0.0 mm
12:00 AM 61.2°F16.2°C 51.3°F10.7°C 70% 6.7 mph NNW10.8 kmh NNW 12.1 mph19.5 kmh 30.16 in1021.3 mb 0.00 in0.0 mm 0.00 in0.0 mm 0.00 in0.0 mm